createdAt,value
2022-09-01T00:03:00.243Z,20.15
2022-09-01T00:08:02.241Z,22.60
2022-09-01T00:13:06.955Z,24.50
2022-09-01T00:18:08.794Z,20.58
2022-09-01T00:23:10.983Z,25.65
2022-09-01T00:28:13.061Z,30.40
2022-09-01T00:33:14.847Z,19.67
2022-09-01T00:38:16.596Z,25.13
2022-09-01T00:43:36.539Z,23.47
2022-09-01T00:48:39.162Z,24.73
2022-09-01T00:53:43.807Z,23.92
2022-09-01T00:58:45.565Z,24.38
2022-09-01T01:03:47.290Z,23.10
2022-09-01T01:08:57.078Z,20.98
2022-09-01T01:14:05.823Z,26.90
2022-09-01T01:19:38.352Z,21.13
2022-09-01T01:24:42.485Z,21.55
2022-09-01T01:29:44.569Z,23.17
2022-09-01T01:34:48.747Z,26.87
2022-09-01T01:39:51.794Z,20.92
2022-09-01T01:44:54.614Z,23.45
2022-09-01T01:49:57.413Z,15.60
2022-09-01T01:55:03.270Z,17.50
2022-09-01T02:00:07.849Z,18.42
2022-09-01T02:05:13.871Z,18.70
2022-09-01T02:10:16.296Z,20.15
2022-09-01T02:15:20.310Z,15.82
2022-09-01T02:20:24.868Z,17.77
2022-09-01T02:25:27.485Z,15.73
2022-09-01T02:35:37.979Z,19.63
2022-09-01T02:40:44.906Z,19.65
2022-09-01T02:45:55.616Z,19.13
2022-09-01T02:51:01.989Z,19.30
2022-09-01T02:56:09.459Z,32.70
2022-09-01T03:01:25.161Z,20.23
2022-09-01T03:06:29.041Z,22.63
2022-09-01T03:11:33.315Z,20.50
2022-09-01T03:16:36.282Z,24.40
2022-09-01T03:21:41.079Z,25.60
2022-09-01T03:26:45.019Z,19.63
2022-09-01T03:31:51.717Z,19.90
2022-09-01T03:36:54.361Z,19.17
2022-09-01T03:42:03.285Z,18.02
2022-09-01T03:47:05.158Z,28.03
2022-09-01T03:52:08.956Z,17.47
2022-09-01T03:57:11.819Z,20.42
2022-09-01T04:02:15.838Z,20.70
2022-09-01T04:07:19.135Z,21.75
2022-09-01T04:12:21.446Z,18.80
2022-09-01T04:17:45.439Z,20.25
2022-09-01T04:22:49.599Z,20.67
2022-09-01T04:27:55.299Z,18.50
2022-09-01T04:32:58.508Z,20.65
2022-09-01T04:38:00.559Z,19.97
2022-09-01T04:43:02.285Z,17.40
2022-09-01T04:48:05.402Z,23.48
2022-09-01T04:53:11.910Z,21.75
2022-09-01T04:58:18.716Z,18.35
2022-09-01T05:03:23.974Z,20.15
2022-09-01T05:08:35.516Z,21.95
2022-09-01T05:13:41.399Z,35.00
2022-09-01T05:18:47.468Z,23.83
2022-09-01T05:23:51.619Z,27.58
2022-09-01T05:28:56.271Z,8.23
2022-09-01T05:33:58.477Z,13.18
2022-09-01T05:39:02.066Z,26.70
2022-09-01T05:44:08.023Z,23.80
2022-09-01T05:49:13.918Z,24.10
2022-09-01T05:54:23.119Z,19.83
2022-09-01T05:59:27.643Z,25.42
2022-09-01T06:04:47.114Z,34.00
2022-09-01T06:09:55.757Z,27.08
2022-09-01T06:14:58.720Z,30.77
2022-09-01T06:20:00.866Z,27.02
2022-09-01T06:25:06.621Z,22.57
2022-09-01T06:30:23.908Z,28.15
2022-09-01T06:35:44.947Z,26.83
2022-09-01T06:40:47.380Z,28.35
2022-09-01T06:45:54.472Z,28.88
2022-09-01T06:51:20.876Z,27.83
2022-09-01T06:56:32.215Z,28.10
2022-09-01T07:13:25.441Z,28.20
2022-09-01T07:30:42.830Z,26.80
2022-09-01T07:36:24.976Z,27.77
2022-09-01T07:46:36.773Z,21.42
2022-09-01T07:51:40.164Z,19.45
2022-09-01T07:56:43.172Z,21.52
2022-09-01T08:01:47.294Z,21.33
2022-09-01T08:06:49.700Z,15.43
2022-09-01T08:12:01.693Z,15.77
2022-09-01T08:22:26.837Z,15.67
2022-09-01T08:27:38.898Z,12.35
2022-09-01T08:32:42.188Z,13.20
2022-09-01T08:37:45.298Z,10.43
2022-09-01T08:43:01.550Z,13.52
2022-09-01T08:49:09.900Z,11.75
2022-09-01T08:53:49.866Z,10.20
2022-09-01T08:58:54.187Z,12.15
2022-09-01T09:04:59.768Z,11.63
2022-09-01T09:10:17.082Z,10.50
2022-09-01T09:15:48.125Z,9.75
2022-09-01T09:20:51.529Z,12.05
2022-09-01T09:25:55.052Z,10.77
2022-09-01T09:31:35.745Z,10.70
2022-09-01T09:36:38.355Z,10.48
2022-09-01T09:41:41.415Z,11.77
2022-09-01T09:46:47.466Z,11.75
2022-09-01T09:51:58.771Z,9.68
2022-09-01T09:57:11.643Z,9.00
2022-09-01T10:02:23.165Z,10.02
2022-09-01T10:07:34.371Z,8.43
2022-09-01T10:12:37.170Z,8.13
2022-09-01T10:17:43.640Z,7.40
2022-09-01T10:22:48.595Z,7.18
2022-09-01T10:27:59.178Z,6.00
2022-09-01T10:33:08.011Z,6.80
2022-09-01T10:38:21.519Z,7.50
2022-09-01T10:43:41.506Z,5.60
2022-09-01T10:48:48.796Z,6.90
2022-09-01T10:54:02.287Z,5.13
2022-09-01T10:59:32.762Z,9.13
2022-09-01T11:04:37.775Z,6.32
2022-09-01T11:09:45.057Z,5.57
2022-09-01T11:15:26.755Z,6.38
2022-09-01T11:20:36.102Z,7.70
2022-09-01T11:25:45.862Z,6.38
2022-09-01T11:30:58.183Z,5.28
2022-09-01T11:36:28.669Z,7.20
2022-09-01T11:41:39.533Z,5.93
2022-09-01T11:46:45.822Z,5.00
2022-09-01T11:51:48.279Z,6.40
2022-09-01T11:56:50.079Z,5.55
2022-09-01T12:01:57.929Z,4.50
2022-09-01T12:07:10.621Z,5.28
2022-09-01T12:12:34.677Z,6.00
2022-09-01T12:17:36.789Z,4.78
2022-09-01T12:22:42.854Z,5.50
2022-09-01T12:27:44.557Z,4.25
2022-09-01T12:32:47.011Z,5.23
2022-09-01T12:37:48.979Z,5.55
2022-09-01T12:42:52.317Z,4.60
2022-09-01T12:47:54.419Z,6.47
2022-09-01T12:53:02.009Z,8.85
2022-09-01T12:58:07.492Z,4.55
2022-09-01T13:03:15.106Z,4.88
2022-09-01T13:08:19.462Z,4.22
2022-09-01T13:13:24.219Z,3.88
2022-09-01T13:18:26.706Z,5.65
2022-09-01T13:23:28.524Z,6.72
2022-09-01T13:28:31.965Z,6.38
2022-09-01T13:34:09.238Z,6.35
2022-09-01T13:38:57.421Z,4.20
2022-09-01T13:43:59.439Z,4.37
2022-09-01T13:49:03.013Z,5.23
2022-09-01T13:54:05.123Z,5.57
2022-09-01T13:59:07.999Z,7.45
2022-09-01T14:04:10.373Z,3.70
2022-09-01T14:09:17.571Z,4.65
2022-09-01T14:14:19.894Z,5.15
2022-09-01T14:19:22.143Z,4.85
2022-09-01T14:24:23.865Z,5.63
2022-09-01T14:29:25.775Z,4.23
2022-09-01T14:34:27.654Z,6.13
2022-09-01T14:39:30.741Z,4.60
2022-09-01T14:44:34.484Z,6.03
2022-09-01T14:49:37.006Z,3.17
2022-09-01T14:59:42.216Z,3.58
2022-09-01T15:09:45.638Z,5.13
2022-09-01T15:14:47.320Z,7.33
2022-09-01T15:19:49.322Z,3.90
2022-09-01T15:24:50.946Z,4.60
2022-09-01T15:29:52.639Z,6.55
2022-09-01T15:34:56.210Z,6.07
2022-09-01T15:39:58.123Z,4.80
2022-09-01T15:44:59.822Z,3.33
2022-09-01T15:50:05.802Z,5.00
2022-09-01T15:55:08.965Z,4.20
2022-09-01T16:00:11.542Z,4.90
2022-09-01T16:05:14.414Z,4.38
2022-09-01T16:10:16.123Z,5.03
2022-09-01T16:15:22.163Z,8.30
2022-09-01T16:20:30.396Z,8.13
2022-09-01T16:25:34.776Z,7.22
2022-09-01T16:30:36.827Z,3.30
2022-09-01T16:35:47.902Z,4.00
2022-09-01T16:41:28.033Z,4.97
2022-09-01T16:46:47.803Z,4.78
2022-09-01T16:52:00.113Z,5.45
2022-09-01T16:57:27.706Z,5.07
2022-09-01T17:02:38.174Z,5.55
2022-09-01T17:07:49.397Z,4.07
2022-09-01T17:12:56.237Z,4.60
2022-09-01T17:18:06.136Z,4.32
2022-09-01T17:23:15.530Z,4.20
2022-09-01T17:28:33.442Z,6.60
2022-09-01T17:33:50.365Z,4.93
2022-09-01T17:39:15.954Z,6.85
2022-09-01T17:44:35.488Z,4.78
2022-09-01T17:49:54.082Z,4.57
2022-09-01T17:55:10.758Z,6.53
2022-09-01T18:00:26.274Z,10.45
2022-09-01T18:05:34.021Z,7.68
2022-09-01T18:10:40.706Z,7.93
2022-09-01T18:15:53.101Z,6.68
2022-09-01T18:21:04.829Z,4.60
2022-09-01T18:26:32.443Z,5.30
2022-09-01T18:31:34.884Z,6.47
2022-09-01T18:37:21.266Z,6.47
2022-09-01T18:42:52.557Z,4.85
2022-09-01T18:48:17.146Z,8.52
2022-09-01T18:53:34.100Z,9.73
2022-09-01T18:59:04.085Z,11.00
2022-09-01T19:04:16.556Z,7.40
2022-09-01T19:09:30.681Z,4.80
2022-09-01T19:15:03.932Z,5.93
2022-09-01T19:20:12.473Z,11.32
2022-09-01T19:25:36.070Z,6.93
2022-09-01T19:30:48.092Z,11.25
2022-09-01T19:35:54.519Z,7.83
2022-09-01T19:41:12.865Z,8.38
2022-09-01T19:46:37.844Z,8.32
2022-09-01T19:51:56.957Z,7.55
2022-09-01T19:57:08.215Z,8.40
2022-09-01T20:02:21.103Z,6.63
2022-09-01T20:12:53.719Z,5.78
2022-09-01T20:18:02.359Z,8.20
2022-09-01T20:23:14.571Z,5.05
2022-09-01T20:28:45.339Z,4.93
2022-09-01T20:33:54.923Z,8.02
2022-09-01T20:39:33.391Z,5.00
2022-09-01T20:44:48.121Z,7.95
2022-09-01T20:49:49.914Z,6.70
2022-09-01T20:55:04.616Z,6.85
2022-09-01T21:00:16.975Z,8.10
2022-09-01T21:05:26.702Z,9.65
2022-09-01T21:10:41.466Z,8.52
2022-09-01T21:15:52.686Z,9.02
2022-09-01T21:21:04.103Z,5.20
2022-09-01T21:26:06.172Z,7.53
2022-09-01T21:31:08.789Z,8.30
2022-09-01T21:36:10.524Z,7.63
2022-09-01T21:41:13.452Z,7.13
2022-09-01T21:46:16.406Z,7.65
2022-09-01T21:51:18.343Z,8.13
2022-09-01T21:56:20.031Z,6.47
2022-09-01T22:01:31.241Z,7.72
2022-09-01T22:06:34.047Z,4.93
2022-09-01T22:11:36.795Z,14.15
2022-09-01T22:16:39.120Z,9.38
2022-09-01T22:21:41.949Z,9.57
2022-09-01T22:26:43.809Z,10.57
2022-09-01T22:31:45.715Z,7.28
2022-09-01T22:36:49.104Z,8.50
2022-09-01T22:41:51.021Z,7.90
2022-09-01T22:46:52.781Z,7.28
2022-09-01T22:51:54.694Z,8.75
2022-09-01T22:56:58.667Z,4.63
2022-09-01T23:02:01.848Z,6.75
2022-09-01T23:07:05.271Z,8.23
2022-09-01T23:12:07.165Z,8.20
2022-09-01T23:17:09.096Z,11.00
2022-09-01T23:22:10.835Z,7.85
2022-09-01T23:27:12.579Z,7.15
2022-09-01T23:32:14.368Z,7.43
2022-09-01T23:37:16.857Z,6.13
2022-09-01T23:42:19.462Z,8.02
2022-09-01T23:47:21.090Z,5.32
2022-09-01T23:52:22.775Z,11.35
2022-09-01T23:57:24.653Z,12.82
